createdAt,value
2023-05-11T00:01:09.606Z,5.47
2023-05-11T00:03:36.580Z,9.10
2023-05-11T00:06:03.640Z,5.03
2023-05-11T00:08:30.534Z,5.72
2023-05-11T00:10:57.555Z,5.13
2023-05-11T00:13:24.378Z,5.68
2023-05-11T00:15:51.070Z,7.82
2023-05-11T00:18:17.813Z,5.10
2023-05-11T00:20:45.470Z,4.60
2023-05-11T00:23:12.218Z,5.43
2023-05-11T00:25:39.265Z,5.20
2023-05-11T00:28:06.862Z,5.82
2023-05-11T00:30:33.877Z,9.75
2023-05-11T00:33:00.673Z,6.55
2023-05-11T00:35:27.411Z,5.13
2023-05-11T00:37:54.137Z,5.70
2023-05-11T00:40:20.841Z,5.07
2023-05-11T00:42:47.660Z,7.13
2023-05-11T00:45:14.804Z,6.88
2023-05-11T00:47:41.899Z,6.10
2023-05-11T00:50:09.515Z,5.75
2023-05-11T00:52:36.258Z,7.60
2023-05-11T00:55:03.011Z,5.43
2023-05-11T00:57:33.343Z,11.10
2023-05-11T01:00:04.166Z,6.47
2023-05-11T01:02:31.394Z,9.05
2023-05-11T01:04:58.232Z,6.43
2023-05-11T01:07:45.144Z,6.25
2023-05-11T01:10:23.946Z,6.43
2023-05-11T01:13:21.069Z,5.22
2023-05-11T01:15:53.560Z,5.75
2023-05-11T01:18:29.239Z,6.22
2023-05-11T01:21:00.818Z,6.32
2023-05-11T01:23:33.446Z,7.85
2023-05-11T01:26:35.222Z,8.45
2023-05-11T01:29:19.092Z,7.55
2023-05-11T01:31:48.526Z,8.43
2023-05-11T01:34:23.558Z,7.85
2023-05-11T01:36:58.509Z,7.68
2023-05-11T01:39:32.697Z,7.30
2023-05-11T01:42:09.563Z,6.95
2023-05-11T01:44:39.988Z,7.05
2023-05-11T01:47:08.643Z,7.63
2023-05-11T01:49:38.821Z,9.40
2023-05-11T01:52:08.294Z,8.88
2023-05-11T01:54:37.220Z,6.55
2023-05-11T01:57:05.326Z,9.02
2023-05-11T01:59:33.515Z,7.10
2023-05-11T02:02:01.095Z,6.10
2023-05-11T02:04:29.921Z,8.55
2023-05-11T02:06:59.078Z,6.25
2023-05-11T02:09:26.547Z,7.50
2023-05-11T02:11:55.842Z,10.73
2023-05-11T02:14:24.732Z,8.68
2023-05-11T02:16:53.188Z,6.20
2023-05-11T02:19:21.321Z,8.35
2023-05-11T02:21:50.320Z,10.82
2023-05-11T02:24:18.414Z,8.57
2023-05-11T02:26:46.264Z,10.32
2023-05-11T02:29:13.201Z,6.13
2023-05-11T02:31:47.372Z,5.78
2023-05-11T02:34:21.706Z,10.05
2023-05-11T02:36:49.893Z,7.22
2023-05-11T02:39:24.119Z,6.75
2023-05-11T02:41:57.549Z,6.45
2023-05-11T02:44:31.512Z,6.97
2023-05-11T02:47:02.527Z,6.93
2023-05-11T02:49:31.873Z,7.38
2023-05-11T02:52:01.174Z,7.10
2023-05-11T02:54:29.315Z,6.05
2023-05-11T02:56:57.332Z,6.60
2023-05-11T02:59:25.373Z,8.52
2023-05-11T03:01:52.811Z,7.30
2023-05-11T03:04:19.697Z,7.53
2023-05-11T03:06:46.657Z,7.85
2023-05-11T03:09:13.610Z,7.35
2023-05-11T03:11:41.412Z,7.38
2023-05-11T03:14:08.874Z,6.65
2023-05-11T03:16:37.512Z,7.10
2023-05-11T03:19:06.428Z,6.28
2023-05-11T03:21:35.237Z,9.02
2023-05-11T03:24:02.490Z,7.45
2023-05-11T03:26:31.996Z,7.88
2023-05-11T03:29:00.227Z,6.32
2023-05-11T03:31:27.283Z,6.32
2023-05-11T03:33:54.342Z,6.80
2023-05-11T03:36:22.872Z,5.95
2023-05-11T03:38:53.336Z,7.43
2023-05-11T03:41:21.550Z,6.03
2023-05-11T03:43:51.794Z,6.80
2023-05-11T03:46:21.305Z,7.22
2023-05-11T03:48:48.770Z,6.90
2023-05-11T03:51:15.834Z,6.68
2023-05-11T03:53:42.767Z,5.60
2023-05-11T03:56:09.564Z,7.90
2023-05-11T03:58:40.513Z,5.53
2023-05-11T04:01:09.209Z,6.70
2023-05-11T04:03:48.250Z,6.68
2023-05-11T04:06:17.024Z,5.47
2023-05-11T04:08:44.320Z,7.47
2023-05-11T04:11:11.324Z,6.40
2023-05-11T04:13:38.101Z,8.07
2023-05-11T04:16:05.081Z,6.07
2023-05-11T04:18:31.860Z,6.97
2023-05-11T04:20:58.577Z,9.20
2023-05-11T04:23:25.311Z,6.57
2023-05-11T04:25:56.077Z,9.88
2023-05-11T04:28:27.562Z,6.90
2023-05-11T04:30:55.732Z,5.75
2023-05-11T04:33:23.018Z,5.32
2023-05-11T04:35:51.522Z,5.70
2023-05-11T04:38:20.001Z,4.50
2023-05-11T04:40:47.870Z,7.30
2023-05-11T04:43:15.204Z,6.43
2023-05-11T04:45:42.217Z,6.38
2023-05-11T04:48:09.034Z,5.85
2023-05-11T04:50:37.130Z,5.90
2023-05-11T04:53:03.929Z,7.07
2023-05-11T04:55:30.689Z,4.60
2023-05-11T04:57:57.645Z,5.07
2023-05-11T05:00:24.449Z,5.35
2023-05-11T05:02:51.940Z,7.10
2023-05-11T05:05:18.904Z,8.15
2023-05-11T05:07:45.998Z,4.90
2023-05-11T05:10:13.016Z,4.57
2023-05-11T05:12:40.062Z,4.63
2023-05-11T05:15:07.477Z,4.50
2023-05-11T05:17:34.178Z,4.25
2023-05-11T05:20:00.986Z,4.00
2023-05-11T05:22:27.904Z,4.30
2023-05-11T05:24:54.615Z,4.10
2023-05-11T05:27:21.275Z,4.00
2023-05-11T05:29:48.065Z,5.60
2023-05-11T05:32:14.738Z,6.65
2023-05-11T05:34:41.606Z,6.63
2023-05-11T05:37:08.333Z,10.20
2023-05-11T05:39:35.307Z,6.18
2023-05-11T05:42:03.074Z,5.30
2023-05-11T05:44:29.867Z,3.58
2023-05-11T05:46:56.611Z,7.50
2023-05-11T05:49:23.369Z,5.40
2023-05-11T05:51:51.708Z,7.07
2023-05-11T05:54:18.658Z,5.68
2023-05-11T05:56:45.451Z,6.88
2023-05-11T05:59:14.383Z,5.82
2023-05-11T06:01:45.582Z,6.43
2023-05-11T06:04:13.362Z,5.65
2023-05-11T06:06:40.386Z,7.32
2023-05-11T06:09:07.434Z,6.53
2023-05-11T06:11:34.281Z,4.95
2023-05-11T06:14:01.002Z,4.00
2023-05-11T06:16:28.253Z,4.68
2023-05-11T06:18:55.071Z,4.00
2023-05-11T06:21:22.161Z,3.45
2023-05-11T06:23:49.312Z,5.47
2023-05-11T06:26:16.286Z,2.85
2023-05-11T06:28:43.631Z,2.42
2023-05-11T06:31:10.672Z,6.00
2023-05-11T06:33:37.656Z,3.70
2023-05-11T06:36:08.062Z,6.15
2023-05-11T06:38:35.342Z,5.35
2023-05-11T06:41:02.522Z,2.53
2023-05-11T06:43:39.031Z,3.38
2023-05-11T06:57:45.531Z,3.60
2023-05-11T07:00:47.432Z,3.55
2023-05-11T07:03:30.219Z,2.78
2023-05-11T07:06:01.470Z,2.47
2023-05-11T07:08:34.900Z,2.53
2023-05-11T07:12:08.153Z,3.38
2023-05-11T07:18:00.361Z,3.00
2023-05-11T07:21:14.435Z,2.83
2023-05-11T07:23:55.042Z,2.28
2023-05-11T07:26:58.139Z,2.53
2023-05-11T07:30:10.292Z,4.20
2023-05-11T07:32:46.585Z,2.10
2023-05-11T07:35:36.340Z,2.10
2023-05-11T07:38:17.558Z,4.43
2023-05-11T07:44:58.546Z,3.88
2023-05-11T08:05:24.827Z,4.43
2023-05-11T08:07:51.669Z,2.72
2023-05-11T08:10:18.535Z,2.88
2023-05-11T08:12:45.235Z,4.05
2023-05-11T08:15:12.051Z,1.42
2023-05-11T08:17:38.767Z,1.42
2023-05-11T08:20:06.785Z,3.25
2023-05-11T08:22:33.601Z,3.33
2023-05-11T08:25:00.789Z,2.83
2023-05-11T08:27:27.512Z,1.52
2023-05-11T08:29:55.420Z,2.40
2023-05-11T08:32:22.261Z,2.15
2023-05-11T08:34:49.719Z,1.90
2023-05-11T08:37:16.494Z,1.95
2023-05-11T08:39:47.593Z,2.35
2023-05-11T08:42:19.040Z,2.08
2023-05-11T08:44:47.994Z,3.35
2023-05-11T08:49:45.276Z,1.98
2023-05-11T08:52:13.946Z,3.05
2023-05-11T08:54:40.751Z,1.92
2023-05-11T08:57:08.678Z,1.63
2023-05-11T08:59:36.114Z,4.93
2023-05-11T09:02:04.362Z,2.55
2023-05-11T09:04:32.487Z,2.00
2023-05-11T09:06:59.923Z,2.00
2023-05-11T09:09:26.809Z,1.15
2023-05-11T09:11:54.375Z,1.40
2023-05-11T09:14:27.172Z,2.28
2023-05-11T09:16:54.455Z,1.50
2023-05-11T09:19:21.903Z,2.42
2023-05-11T09:21:48.669Z,2.78
2023-05-11T09:24:15.492Z,1.65
2023-05-11T09:26:42.235Z,1.63
2023-05-11T09:29:09.175Z,2.55
2023-05-11T09:31:46.773Z,1.80
2023-05-11T09:34:21.659Z,2.83
2023-05-11T09:36:52.754Z,2.20
2023-05-11T09:39:42.175Z,1.77
2023-05-11T09:42:24.194Z,1.30
2023-05-11T09:44:50.995Z,1.20
2023-05-11T09:47:19.373Z,1.15
2023-05-11T09:49:47.637Z,1.10
2023-05-11T09:52:16.215Z,1.30
2023-05-11T09:54:45.108Z,1.50
2023-05-11T09:57:25.145Z,1.10
2023-05-11T09:59:52.973Z,1.23
2023-05-11T10:02:26.693Z,1.23
2023-05-11T10:04:58.712Z,2.15
2023-05-11T10:07:32.632Z,1.67
2023-05-11T10:10:04.700Z,1.50
2023-05-11T10:12:33.601Z,2.00
2023-05-11T10:15:10.064Z,1.60
2023-05-11T10:17:37.396Z,1.90
2023-05-11T10:20:05.930Z,1.58
2023-05-11T10:22:33.530Z,2.70
2023-05-11T10:25:00.583Z,3.72
2023-05-11T10:27:27.558Z,3.30
2023-05-11T10:29:54.596Z,1.98
2023-05-11T10:32:21.635Z,2.08
2023-05-11T10:34:50.511Z,1.52
2023-05-11T10:37:17.622Z,2.00
2023-05-11T10:39:48.402Z,2.88
2023-05-11T10:42:36.344Z,1.80
2023-05-11T10:45:18.417Z,1.98
2023-05-11T10:47:57.471Z,2.22
2023-05-11T10:50:44.555Z,2.83
2023-05-11T10:53:39.645Z,1.50
2023-05-11T10:56:31.789Z,1.90
2023-05-11T10:59:20.617Z,1.73
2023-05-11T11:01:50.640Z,1.50
2023-05-11T11:04:18.068Z,2.17
2023-05-11T11:06:44.893Z,1.63
2023-05-11T11:09:15.911Z,2.00
2023-05-11T11:11:47.900Z,2.30
2023-05-11T11:14:16.476Z,2.45
2023-05-11T11:17:15.229Z,1.45
2023-05-11T11:19:42.759Z,1.80
2023-05-11T11:22:43.778Z,2.35
2023-05-11T11:25:14.509Z,1.88
2023-05-11T11:27:41.241Z,1.45
2023-05-11T11:30:28.968Z,2.53
2023-05-11T11:33:08.028Z,4.30
2023-05-11T11:35:43.953Z,1.52
2023-05-11T11:38:12.623Z,1.67
2023-05-11T11:40:52.682Z,2.58
2023-05-11T11:43:28.389Z,1.25
2023-05-11T11:46:02.614Z,0.90
2023-05-11T11:48:37.553Z,1.10
2023-05-11T11:51:13.033Z,1.58
2023-05-11T11:53:41.211Z,1.00
2023-05-11T11:56:28.757Z,0.68
2023-05-11T11:59:00.210Z,0.90
2023-05-11T12:01:29.346Z,1.20
2023-05-11T12:04:05.771Z,1.30
2023-05-11T12:06:37.727Z,2.80
2023-05-11T12:09:07.301Z,0.90
2023-05-11T12:11:34.792Z,1.10
2023-05-11T12:14:02.822Z,1.17
2023-05-11T12:16:30.382Z,0.95
2023-05-11T12:19:01.557Z,2.55
2023-05-11T12:21:31.762Z,1.23
2023-05-11T12:24:03.062Z,1.10
2023-05-11T12:26:31.187Z,1.65
2023-05-11T12:29:14.802Z,1.42
2023-05-11T12:31:43.503Z,1.20
2023-05-11T12:34:23.148Z,1.33
2023-05-11T12:36:51.498Z,0.90
2023-05-11T12:39:19.140Z,6.10
2023-05-11T12:41:47.962Z,0.70
2023-05-11T12:44:16.443Z,1.27
2023-05-11T12:46:45.111Z,0.80
2023-05-11T12:49:14.055Z,1.55
2023-05-11T12:51:47.740Z,0.40
2023-05-11T12:54:32.592Z,0.50
2023-05-11T12:59:34.234Z,0.50
2023-05-11T13:02:07.822Z,3.05
2023-05-11T13:04:34.619Z,0.80
2023-05-11T13:07:01.493Z,0.50
2023-05-11T13:09:28.475Z,0.50
2023-05-11T13:12:13.738Z,0.70
2023-05-11T13:14:40.588Z,0.80
2023-05-11T13:17:07.568Z,0.98
2023-05-11T13:19:34.912Z,1.17
2023-05-11T13:22:01.718Z,1.00
2023-05-11T13:24:28.523Z,1.50
2023-05-11T13:26:57.621Z,1.08
2023-05-11T13:29:24.480Z,1.02
2023-05-11T13:31:53.318Z,2.35
2023-05-11T13:34:20.757Z,2.03
2023-05-11T13:36:47.847Z,1.25
2023-05-11T13:39:14.759Z,3.15
2023-05-11T13:41:41.549Z,1.05
2023-05-11T13:44:08.420Z,0.60
2023-05-11T13:46:35.586Z,0.60
2023-05-11T13:49:04.657Z,0.60
2023-05-11T13:51:32.281Z,0.57
2023-05-11T13:54:00.817Z,1.08
2023-05-11T13:56:27.674Z,1.15
2023-05-11T13:58:54.474Z,0.55
2023-05-11T14:01:22.113Z,0.65
2023-05-11T14:03:52.896Z,0.98
2023-05-11T14:06:23.085Z,1.58
2023-05-11T14:08:49.862Z,0.68
2023-05-11T14:11:16.681Z,1.33
2023-05-11T14:13:43.428Z,1.08
2023-05-11T14:16:10.287Z,1.10
2023-05-11T14:18:37.140Z,1.35
2023-05-11T14:21:04.007Z,1.10
2023-05-11T14:23:30.767Z,1.20
2023-05-11T14:25:58.140Z,1.20
2023-05-11T14:28:24.930Z,0.80
2023-05-11T14:30:51.787Z,1.13
2023-05-11T14:33:18.585Z,1.23
2023-05-11T14:35:45.668Z,1.23
2023-05-11T14:38:12.400Z,0.98
2023-05-11T14:40:39.259Z,0.80
2023-05-11T14:43:05.935Z,1.10
2023-05-11T14:45:32.954Z,0.80
2023-05-11T14:48:00.187Z,1.02
2023-05-11T14:50:28.161Z,0.70
2023-05-11T14:52:54.890Z,1.80
2023-05-11T14:55:21.799Z,2.00
2023-05-11T14:57:48.553Z,0.77
2023-05-11T15:00:15.778Z,0.77
2023-05-11T15:02:42.548Z,0.55
2023-05-11T15:05:09.631Z,0.80
2023-05-11T15:07:36.818Z,0.70
2023-05-11T15:10:04.479Z,0.60
2023-05-11T15:12:31.246Z,0.80
2023-05-11T15:14:57.999Z,2.95
2023-05-11T15:17:24.761Z,1.27
2023-05-11T15:19:51.546Z,0.60
2023-05-11T15:22:19.148Z,0.73
2023-05-11T15:24:46.082Z,0.52
2023-05-11T15:27:12.815Z,0.60
2023-05-11T15:29:39.581Z,0.80
2023-05-11T15:32:15.756Z,1.02
2023-05-11T15:34:55.519Z,0.57
2023-05-11T15:37:25.809Z,0.85
2023-05-11T15:39:52.628Z,0.80
2023-05-11T15:42:19.394Z,1.40
2023-05-11T15:44:46.303Z,0.98
2023-05-11T15:47:13.222Z,1.48
2023-05-11T15:49:39.979Z,0.80
2023-05-11T15:52:07.077Z,0.73
2023-05-11T15:54:35.852Z,0.95
2023-05-11T15:57:03.001Z,0.60
2023-05-11T15:59:32.497Z,1.35
2023-05-11T16:01:59.519Z,1.90
2023-05-11T16:04:26.396Z,1.00
2023-05-11T16:06:53.229Z,1.42
2023-05-11T16:09:19.938Z,1.33
2023-05-11T16:11:46.666Z,1.10
2023-05-11T16:14:13.405Z,1.73
2023-05-11T16:16:41.170Z,1.15
2023-05-11T16:19:08.456Z,1.10
2023-05-11T16:21:35.338Z,1.45
2023-05-11T16:24:02.128Z,0.80
2023-05-11T16:26:29.521Z,1.17
2023-05-11T16:28:56.372Z,1.10
2023-05-11T16:31:23.362Z,2.67
2023-05-11T16:33:50.265Z,2.38
2023-05-11T16:36:17.548Z,2.42
2023-05-11T16:38:44.352Z,3.05
2023-05-11T16:41:11.582Z,1.10
2023-05-11T16:43:41.775Z,1.83
2023-05-11T16:46:12.229Z,1.95
2023-05-11T16:48:39.201Z,0.80
2023-05-11T16:51:06.100Z,1.55
2023-05-11T16:53:33.226Z,1.45
2023-05-11T16:55:59.962Z,1.50
2023-05-11T16:58:26.791Z,1.50
2023-05-11T17:00:53.636Z,1.75
2023-05-11T17:03:20.717Z,1.73
2023-05-11T17:05:47.687Z,2.05
2023-05-11T17:08:14.469Z,2.65
2023-05-11T17:10:41.596Z,2.65
2023-05-11T17:13:08.325Z,1.48
2023-05-11T17:15:35.123Z,1.48
2023-05-11T17:18:01.935Z,3.47
2023-05-11T17:20:28.641Z,1.85
2023-05-11T17:22:55.846Z,2.10
2023-05-11T17:25:22.605Z,2.25
2023-05-11T17:27:49.383Z,1.98
2023-05-11T17:30:16.489Z,3.28
2023-05-11T17:32:43.773Z,1.50
2023-05-11T17:35:10.854Z,2.30
2023-05-11T17:37:37.794Z,1.50
2023-05-11T17:40:05.538Z,1.77
2023-05-11T17:42:32.280Z,1.23
2023-05-11T17:44:59.028Z,1.00
2023-05-11T17:47:26.148Z,1.15
2023-05-11T17:49:53.051Z,1.48
2023-05-11T17:52:19.754Z,1.30
2023-05-11T17:54:46.533Z,1.33
2023-05-11T17:57:13.248Z,1.83
2023-05-11T17:59:39.992Z,1.80
2023-05-11T18:02:07.595Z,1.88
2023-05-11T18:04:34.373Z,1.50
2023-05-11T18:07:01.119Z,3.80
2023-05-11T18:09:27.876Z,2.53
2023-05-11T18:11:54.631Z,2.25
2023-05-11T18:14:21.373Z,3.50
2023-05-11T18:16:49.568Z,1.52
2023-05-11T18:19:18.124Z,1.80
2023-05-11T18:21:45.475Z,2.30
2023-05-11T18:24:14.660Z,1.55
2023-05-11T18:26:42.002Z,1.10
2023-05-11T18:29:08.776Z,1.42
2023-05-11T18:31:35.613Z,1.50
2023-05-11T18:34:03.723Z,1.38
2023-05-11T18:36:30.456Z,1.63
2023-05-11T18:38:57.236Z,1.25
2023-05-11T18:41:23.932Z,1.40
2023-05-11T18:43:52.718Z,1.45
2023-05-11T18:46:20.413Z,1.25
2023-05-11T18:48:50.056Z,3.47
2023-05-11T18:51:19.313Z,1.90
2023-05-11T18:53:46.038Z,1.80
2023-05-11T18:56:12.770Z,1.90
2023-05-11T18:58:39.535Z,1.90
2023-05-11T19:01:07.393Z,2.83
2023-05-11T19:03:34.302Z,2.20
2023-05-11T19:06:01.855Z,2.20
2023-05-11T19:08:29.945Z,1.73
2023-05-11T19:10:56.707Z,2.10
2023-05-11T19:13:23.529Z,2.65
2023-05-11T19:15:51.129Z,2.53
2023-05-11T19:18:17.935Z,3.72
2023-05-11T19:20:44.697Z,2.90
2023-05-11T19:23:11.454Z,3.10
2023-05-11T19:25:38.284Z,3.58
2023-05-11T19:28:05.082Z,3.33
2023-05-11T19:30:31.896Z,2.80
2023-05-11T19:32:59.081Z,2.95
2023-05-11T19:35:28.213Z,3.47
2023-05-11T19:37:55.037Z,3.20
2023-05-11T19:42:54.406Z,3.00
2023-05-11T19:45:21.182Z,3.05
2023-05-11T19:47:47.941Z,4.55
2023-05-11T19:50:15.011Z,2.83
2023-05-11T19:52:41.843Z,2.47
2023-05-11T19:55:08.720Z,3.15
2023-05-11T19:57:37.419Z,2.65
2023-05-11T20:00:06.394Z,3.33
2023-05-11T20:02:33.645Z,3.15
2023-05-11T20:05:00.654Z,3.00
2023-05-11T20:07:27.633Z,2.67
2023-05-11T20:09:54.915Z,2.40
2023-05-11T20:12:21.643Z,2.92
2023-05-11T20:14:48.428Z,2.53
2023-05-11T20:17:15.538Z,2.53
2023-05-11T20:19:42.255Z,2.20
2023-05-11T20:22:09.005Z,2.45
2023-05-11T20:24:35.817Z,2.63
2023-05-11T20:27:09.356Z,3.20
2023-05-11T20:29:36.482Z,5.20
2023-05-11T20:32:03.539Z,5.50
2023-05-11T20:34:30.362Z,2.40
2023-05-11T20:36:57.170Z,2.65
2023-05-11T20:39:23.988Z,2.60
2023-05-11T20:41:50.867Z,2.42
2023-05-11T20:44:18.472Z,3.97
2023-05-11T20:46:46.820Z,3.78
2023-05-11T20:49:22.254Z,2.45
2023-05-11T20:51:51.713Z,2.90
2023-05-11T20:54:18.621Z,4.47
2023-05-11T20:56:45.868Z,6.30
2023-05-11T21:00:03.749Z,3.75
2023-05-11T21:02:00.130Z,3.10
2023-05-11T21:04:27.020Z,5.22
2023-05-11T21:06:56.813Z,3.65
2023-05-11T21:09:23.575Z,3.55
2023-05-11T21:11:50.387Z,3.30
2023-05-11T21:14:17.158Z,4.28
2023-05-11T21:16:43.970Z,3.25
2023-05-11T21:19:10.764Z,3.13
2023-05-11T21:21:37.860Z,3.75
2023-05-11T21:24:06.148Z,4.55
2023-05-11T21:26:33.019Z,5.30
2023-05-11T21:28:59.909Z,4.03
2023-05-11T21:31:27.209Z,3.50
2023-05-11T21:33:54.080Z,4.10
2023-05-11T21:36:22.133Z,5.18
2023-05-11T21:38:49.016Z,3.90
2023-05-11T21:41:16.847Z,4.93
2023-05-11T21:43:43.602Z,5.68
2023-05-11T21:46:10.412Z,6.40
2023-05-11T21:48:37.167Z,5.90
2023-05-11T21:51:04.139Z,6.13
2023-05-11T21:53:31.060Z,6.00
2023-05-11T21:55:57.814Z,8.57
2023-05-11T21:58:24.565Z,8.27
2023-05-11T22:00:51.351Z,6.78
2023-05-11T22:03:18.122Z,5.90
2023-05-11T22:05:44.899Z,7.75
2023-05-11T22:08:15.326Z,5.78
2023-05-11T22:10:43.359Z,6.00
2023-05-11T22:13:10.401Z,6.72
2023-05-11T22:15:37.263Z,6.72
2023-05-11T22:18:04.986Z,6.82
2023-05-11T22:20:32.061Z,6.25
2023-05-11T22:22:59.427Z,6.78
2023-05-11T22:25:26.547Z,6.65
2023-05-11T22:27:53.336Z,7.03
2023-05-11T22:30:20.557Z,6.93
2023-05-11T22:32:47.589Z,6.65
2023-05-11T22:35:14.493Z,5.68
2023-05-11T22:37:41.245Z,5.47
2023-05-11T22:40:08.832Z,6.10
2023-05-11T22:42:35.732Z,6.10
2023-05-11T22:45:02.525Z,5.82
2023-05-11T22:47:29.500Z,5.65
2023-05-11T22:49:56.341Z,5.45
2023-05-11T22:52:23.143Z,7.40
2023-05-11T22:54:54.790Z,7.00
2023-05-11T22:57:23.943Z,7.88
2023-05-11T22:59:50.744Z,7.53
2023-05-11T23:02:17.532Z,9.00
2023-05-11T23:04:48.585Z,8.20
2023-05-11T23:07:30.377Z,8.35
2023-05-11T23:09:57.313Z,10.50
2023-05-11T23:12:24.026Z,9.18
2023-05-11T23:14:50.859Z,9.82
2023-05-11T23:17:17.559Z,9.95
2023-05-11T23:19:44.509Z,10.63
2023-05-11T23:22:11.381Z,14.25
2023-05-11T23:24:38.075Z,10.55
2023-05-11T23:27:05.071Z,10.65
2023-05-11T23:29:31.911Z,10.48
2023-05-11T23:31:58.653Z,11.50
2023-05-11T23:34:25.403Z,11.35
2023-05-11T23:36:52.142Z,9.60
2023-05-11T23:39:19.231Z,10.63
2023-05-11T23:41:46.106Z,10.70
2023-05-11T23:44:13.006Z,10.50
2023-05-11T23:46:39.760Z,10.13
2023-05-11T23:49:06.518Z,11.27
2023-05-11T23:51:33.403Z,12.07
2023-05-11T23:54:00.177Z,10.73
2023-05-11T23:56:26.877Z,10.95
2023-05-11T23:58:53.825Z,12.75
